createdAt,value
2023-02-27T00:00:50.812Z,1013.19
2023-02-27T00:05:54.961Z,1013.27
2023-02-27T00:10:59.138Z,1013.31
2023-02-27T00:16:03.316Z,1013.33
2023-02-27T00:21:07.488Z,1013.33
2023-02-27T00:26:11.685Z,1013.40
2023-02-27T00:31:14.164Z,1013.22
2023-02-27T00:36:18.078Z,1013.21
2023-02-27T00:41:20.412Z,1013.16
2023-02-27T00:46:22.663Z,1013.11
2023-02-27T00:51:27.177Z,1012.97
2023-02-27T00:56:29.093Z,1012.94
2023-02-27T01:01:33.245Z,1012.83
2023-02-27T01:06:37.465Z,1012.77
2023-02-27T01:11:39.725Z,1012.89
2023-02-27T01:16:43.918Z,1012.77
2023-02-27T01:21:48.078Z,1012.69
2023-02-27T01:26:52.183Z,1012.69
2023-02-27T01:31:56.487Z,1012.63
2023-02-27T01:37:00.538Z,1012.50
2023-02-27T01:42:04.712Z,1012.35
2023-02-27T01:47:08.903Z,1012.36
2023-02-27T01:52:13.022Z,1012.15
2023-02-27T01:57:17.195Z,1012.13
2023-02-27T02:02:21.404Z,1012.01
2023-02-27T02:07:25.519Z,1012.03
2023-02-27T02:12:29.694Z,1011.94
2023-02-27T02:17:33.862Z,1011.82
2023-02-27T02:22:38.042Z,1011.71
2023-02-27T02:27:42.194Z,1011.76
2023-02-27T02:32:46.378Z,1011.73
2023-02-27T02:37:50.607Z,1011.64
2023-02-27T02:42:54.706Z,1011.62
2023-02-27T02:47:58.907Z,1011.69
2023-02-27T02:53:03.047Z,1011.57
2023-02-27T02:58:05.326Z,1011.57
2023-02-27T03:03:09.525Z,1011.58
2023-02-27T03:08:11.785Z,1011.58
2023-02-27T03:13:15.957Z,1011.40
2023-02-27T03:18:20.143Z,1011.34
2023-02-27T03:23:24.278Z,1011.19
2023-02-27T03:28:28.471Z,1011.18
2023-02-27T03:33:32.605Z,1011.08
2023-02-27T03:38:36.781Z,1010.98
2023-02-27T03:43:40.942Z,1011.03
2023-02-27T03:48:45.098Z,1011.07
2023-02-27T03:53:49.277Z,1010.91
2023-02-27T03:58:53.443Z,1010.95
2023-02-27T04:03:57.749Z,1010.83
2023-02-27T04:09:01.824Z,1010.71
2023-02-27T04:14:05.972Z,1010.68
2023-02-27T04:19:10.153Z,1010.72
2023-02-27T04:24:14.310Z,1010.57
2023-02-27T04:29:18.486Z,1010.49
2023-02-27T04:34:22.624Z,1010.46
2023-02-27T04:39:26.790Z,1010.57
2023-02-27T04:44:30.993Z,1010.47
2023-02-27T04:49:35.166Z,1010.42
2023-02-27T04:54:37.439Z,1010.36
2023-02-27T04:59:41.611Z,1010.43
2023-02-27T05:04:43.873Z,1010.36
2023-02-27T05:09:48.027Z,1010.38
2023-02-27T05:14:52.225Z,1010.40
2023-02-27T05:19:56.366Z,1010.33
2023-02-27T05:25:00.570Z,1010.28
2023-02-27T05:30:04.789Z,1010.25
2023-02-27T05:35:08.878Z,1010.28
2023-02-27T05:40:13.051Z,1010.13
2023-02-27T05:45:17.233Z,1010.18
2023-02-27T05:50:21.376Z,1010.04
2023-02-27T05:55:25.575Z,1010.08
2023-02-27T06:00:29.719Z,1010.20
2023-02-27T06:05:33.910Z,1010.05
2023-02-27T06:10:38.053Z,1010.09
2023-02-27T06:15:42.235Z,1010.19
2023-02-27T06:20:46.420Z,1010.18
2023-02-27T06:25:50.558Z,1010.20
2023-02-27T06:30:54.813Z,1010.23
2023-02-27T06:35:59.012Z,1010.25
2023-02-27T06:41:03.066Z,1010.19
2023-02-27T06:46:07.296Z,1010.21
2023-02-27T06:51:09.533Z,1010.16
2023-02-27T06:56:13.705Z,1010.09
2023-02-27T07:01:17.869Z,1010.02
2023-02-27T07:06:20.118Z,1010.07
2023-02-27T07:11:24.315Z,1010.18
2023-02-27T07:16:28.886Z,1010.03
2023-02-27T07:21:32.629Z,1010.06
2023-02-27T07:26:36.834Z,1009.99
2023-02-27T07:31:40.988Z,1009.99
2023-02-27T07:36:45.144Z,1009.91
2023-02-27T07:41:49.308Z,1009.85
2023-02-27T07:46:53.586Z,1009.78
2023-02-27T07:51:57.666Z,1009.68
2023-02-27T07:57:01.835Z,1009.51
2023-02-27T08:02:06.001Z,1009.50
2023-02-27T08:07:10.177Z,1009.33
2023-02-27T08:12:14.314Z,1009.21
2023-02-27T08:17:18.484Z,1009.08
2023-02-27T08:22:22.684Z,1008.87
2023-02-27T08:27:26.815Z,1008.91
2023-02-27T08:32:31.073Z,1008.86
2023-02-27T08:37:35.166Z,1008.90
2023-02-27T08:42:39.299Z,1009.03
2023-02-27T08:47:43.505Z,1009.29
2023-02-27T08:52:45.776Z,1009.57
2023-02-27T08:57:49.915Z,1009.89
2023-02-27T09:02:54.240Z,1010.06
2023-02-27T09:07:58.286Z,1010.56
2023-02-27T09:13:02.448Z,1010.89
2023-02-27T09:18:06.666Z,1011.29
2023-02-27T09:23:10.771Z,1011.80
2023-02-27T09:28:14.978Z,1012.47
2023-02-27T09:33:19.122Z,1013.07
2023-02-27T09:38:23.257Z,1013.92
2023-02-27T09:43:27.410Z,1014.71
2023-02-27T09:48:31.593Z,1015.24
2023-02-27T09:53:35.785Z,1015.74
2023-02-27T09:58:39.924Z,1016.08
2023-02-27T10:03:44.093Z,1016.41
2023-02-27T10:08:48.300Z,1016.56
2023-02-27T10:13:52.444Z,1016.59
2023-02-27T10:18:56.588Z,1016.72
2023-02-27T10:24:00.762Z,1016.93
2023-02-27T10:29:04.951Z,1016.99
2023-02-27T10:34:09.098Z,1017.18
2023-02-27T10:39:11.350Z,1017.37
2023-02-27T10:44:15.631Z,1017.42
2023-02-27T10:49:19.164Z,1017.29
2023-02-27T10:54:21.956Z,1017.38
2023-02-27T10:59:24.237Z,1017.34
2023-02-27T11:04:28.416Z,1017.34
2023-02-27T11:09:32.578Z,1017.36
2023-02-27T11:14:36.751Z,1017.59
2023-02-27T11:19:40.885Z,1017.45
2023-02-27T11:24:45.030Z,1017.29
2023-02-27T11:29:49.235Z,1017.49
2023-02-27T11:34:53.585Z,1017.43
2023-02-27T11:39:57.556Z,1017.38
2023-02-27T11:45:01.725Z,1017.35
2023-02-27T11:50:05.892Z,1017.26
2023-02-27T11:55:10.060Z,1017.28
2023-02-27T12:00:14.244Z,1017.28
2023-02-27T12:05:18.364Z,1017.20
2023-02-27T12:10:22.561Z,1017.34
2023-02-27T12:15:26.702Z,1017.36
2023-02-27T12:20:30.831Z,1017.40
2023-02-27T12:25:35.019Z,1017.58
2023-02-27T12:30:39.165Z,1017.47
2023-02-27T12:35:43.393Z,1017.58
2023-02-27T12:40:47.522Z,1017.42
2023-02-27T12:45:49.846Z,1017.32
2023-02-27T12:50:53.927Z,1017.47
2023-02-27T12:55:56.241Z,1017.33
2023-02-27T13:01:00.402Z,1017.40
2023-02-27T13:06:04.564Z,1017.42
2023-02-27T13:11:08.708Z,1017.28
2023-02-27T13:16:12.904Z,1017.36
2023-02-27T13:21:17.049Z,1017.32
2023-02-27T13:26:21.209Z,1017.25
2023-02-27T13:31:25.543Z,1017.28
2023-02-27T13:36:29.545Z,1017.48
2023-02-27T13:41:35.972Z,1017.48
2023-02-27T13:46:37.984Z,1017.57
2023-02-27T13:51:42.013Z,1017.53
2023-02-27T13:56:46.185Z,1017.50
2023-02-27T14:01:50.359Z,1017.62
2023-02-27T14:06:54.498Z,1017.67
2023-02-27T14:11:58.662Z,1017.53
2023-02-27T14:17:02.845Z,1017.66
2023-02-27T14:22:06.959Z,1017.40
2023-02-27T14:27:11.177Z,1017.56
2023-02-27T14:32:15.383Z,1017.54
2023-02-27T14:37:19.482Z,1017.55
2023-02-27T14:42:21.808Z,1017.64
2023-02-27T14:47:25.876Z,1017.64
2023-02-27T14:52:28.282Z,1017.42
2023-02-27T14:57:32.386Z,1017.46
2023-02-27T15:02:34.656Z,1017.61
2023-02-27T15:07:38.762Z,1017.54
2023-02-27T15:12:42.933Z,1017.48
2023-02-27T15:17:47.111Z,1017.60
2023-02-27T15:22:51.283Z,1017.57
2023-02-27T15:27:55.429Z,1017.55
2023-02-27T15:32:59.621Z,1017.51
2023-02-27T15:38:03.786Z,1017.60
2023-02-27T15:43:07.962Z,1017.66
2023-02-27T15:48:12.097Z,1017.73
2023-02-27T15:53:16.259Z,1017.68
2023-02-27T15:58:20.479Z,1017.71
2023-02-27T16:03:24.592Z,1017.65
2023-02-27T16:08:28.750Z,1017.73
2023-02-27T16:13:32.900Z,1017.76
2023-02-27T16:18:37.089Z,1017.71
2023-02-27T16:23:41.223Z,1017.79
2023-02-27T16:28:45.399Z,1017.63
2023-02-27T16:33:49.600Z,1017.88
2023-02-27T16:38:51.844Z,1017.86
2023-02-27T16:43:55.998Z,1017.79
2023-02-27T16:49:00.667Z,1017.76
2023-02-27T16:54:02.414Z,1017.85
2023-02-27T16:59:06.612Z,1017.80
2023-02-27T17:04:23.362Z,1017.82
2023-02-27T17:09:14.951Z,1017.83
2023-02-27T17:14:19.088Z,1017.86
2023-02-27T17:19:23.282Z,1017.90
2023-02-27T17:24:27.444Z,1017.85
2023-02-27T17:29:31.595Z,1017.89
2023-02-27T17:34:35.766Z,1017.85
2023-02-27T17:39:39.924Z,1017.97
2023-02-27T17:44:45.120Z,1017.86
2023-02-27T17:49:48.261Z,1017.87
2023-02-27T17:54:52.407Z,1017.81
2023-02-27T17:59:56.579Z,1017.82
2023-02-27T18:05:00.763Z,1017.76
2023-02-27T18:10:04.918Z,1017.81
2023-02-27T18:15:09.039Z,1017.75
2023-02-27T18:20:13.202Z,1017.84
2023-02-27T18:25:17.389Z,1017.93
2023-02-27T18:30:21.531Z,1017.74
2023-02-27T18:35:23.932Z,1017.84
2023-02-27T18:40:28.009Z,1017.86
2023-02-27T18:45:30.345Z,1017.79
2023-02-27T18:50:34.520Z,1017.68
2023-02-27T18:55:38.622Z,1017.71
2023-02-27T19:00:42.783Z,1017.67
2023-02-27T19:05:46.932Z,1017.66
2023-02-27T19:10:51.084Z,1017.64
2023-02-27T19:15:55.448Z,1017.58
2023-02-27T19:20:59.409Z,1017.64
2023-02-27T19:26:03.613Z,1017.63
2023-02-27T19:31:07.850Z,1017.63
2023-02-27T19:36:11.941Z,1017.62
2023-02-27T19:41:16.099Z,1017.67
2023-02-27T19:46:20.351Z,1017.69
2023-02-27T19:51:24.427Z,1017.71
2023-02-27T19:56:28.887Z,1017.66
2023-02-27T20:01:32.714Z,1017.68
2023-02-27T20:06:36.933Z,1017.73
2023-02-27T20:11:41.081Z,1017.64
2023-02-27T20:16:45.321Z,1017.55
2023-02-27T20:21:49.623Z,1017.41
2023-02-27T20:26:53.568Z,1017.40
2023-02-27T20:31:55.967Z,1017.40
2023-02-27T20:37:00.017Z,1017.39
2023-02-27T20:42:02.299Z,1017.39
2023-02-27T20:47:06.477Z,1017.43
2023-02-27T20:52:10.617Z,1017.48
2023-02-27T20:57:14.754Z,1017.43
2023-02-27T21:02:18.927Z,1017.34
2023-02-27T21:07:23.099Z,1017.29
2023-02-27T21:12:27.257Z,1017.21
2023-02-27T21:17:31.437Z,1017.24
2023-02-27T21:22:35.587Z,1017.28
2023-02-27T21:27:39.770Z,1017.23
2023-02-27T21:32:43.927Z,1017.11
2023-02-27T21:37:48.093Z,1016.85
2023-02-27T21:42:52.277Z,1016.69
2023-02-27T21:47:56.441Z,1016.67
2023-02-27T21:53:00.591Z,1016.43
2023-02-27T21:58:04.754Z,1016.33
2023-02-27T22:03:08.950Z,1016.14
2023-02-27T22:08:13.067Z,1015.97
2023-02-27T22:13:17.287Z,1015.81
2023-02-27T22:18:21.406Z,1015.70
2023-02-27T22:23:25.594Z,1015.63
2023-02-27T22:28:27.886Z,1015.42
2023-02-27T22:33:32.032Z,1015.34
2023-02-27T22:38:34.333Z,1015.24
2023-02-27T22:43:38.473Z,1015.24
2023-02-27T22:48:42.663Z,1015.07
2023-02-27T22:53:46.806Z,1015.03
2023-02-27T22:58:51.034Z,1014.88
2023-02-27T23:03:55.165Z,1014.84
2023-02-27T23:08:59.329Z,1014.82
2023-02-27T23:14:03.535Z,1014.79
2023-02-27T23:19:07.669Z,1014.64
2023-02-27T23:24:11.813Z,1014.51
2023-02-27T23:29:15.998Z,1014.44
2023-02-27T23:34:20.141Z,1014.49
2023-02-27T23:39:24.288Z,1014.45
2023-02-27T23:44:28.518Z,1014.46
2023-02-27T23:49:32.669Z,1014.50
2023-02-27T23:54:36.797Z,1014.46
2023-02-27T23:59:41.002Z,1014.49
